Santa Catalina, California
Current Conditions -  °F | °C
As of 11:51 PM on Sunday 25 Jan 2015 (Local Time) from KAVX Reporting Station
Overcast Overcast  
Wind Chill: 66°   Ceiling: 12000
Heat Index: 66°   Visibility: 10mi
Dew Point: 18°   Wind: 8mph
Humidity: 16%   Direction: 40°NE
Pressure: 30.08"   Gusts: NA
Location:  33.382°N, 118.433°W
Report Text: KAVX 260751Z AUTO 04007KT 10SM OVC120 19/M08 A3008 RMK AO2 SLP162 T01891078 402390172
Loading
Personal Weather Stations






























Interactive Weather Map New forecast layout! Learn more

10-Day Weather Forecast

Advertisements
Track Severe Weather on mobile